Time;durP1;ratioP1;P1;durP2;ratioP2;P2;SDS_P1;SDS_P2;PMS_P1;PMS_P2;Temp;Humidity;BMP_temperature;BMP_pressure;BME280_temperature;BME280_humidity;BME280_pressure;Samples;Min_cycle;Max_cycle;Signal;HPM_P1;HPM_P2
2023/12/04 00:01:46;;;;;;;12.63;11.67;;;;;;;1.03;77.65;93131.00;5088245;28;20182;-81
2023/12/04 00:04:11;;;;;;;12.20;11.30;;;;;;;0.78;80.77;93137.88;5057808;28;20299;-82
2023/12/04 00:06:37;;;;;;;12.10;11.30;;;;;;;1.16;78.17;93145.56;5051913;28;20194;-82
2023/12/04 00:09:02;;;;;;;13.50;12.23;;;;;;;1.25;79.99;93146.88;5062631;28;20243;-83
2023/12/04 00:11:27;;;;;;;13.33;12.33;;;;;;;1.28;81.28;93136.94;5056410;28;20242;-86
2023/12/04 00:13:53;;;;;;;13.87;12.63;;;;;;;1.43;82.13;93142.56;5062846;28;20392;-86
2023/12/04 00:16:18;;;;;;;17.63;15.67;;;;;;;1.40;82.47;93152.50;5055987;28;20233;-87
2023/12/04 00:18:44;;;;;;;19.40;14.17;;;;;;;1.47;81.21;93143.72;5060394;28;20229;-87
2023/12/04 00:21:09;;;;;;;15.27;14.07;;;;;;;1.65;80.25;93161.78;5060259;28;20177;-86
2023/12/04 00:23:34;;;;;;;15.17;13.93;;;;;;;1.03;83.01;93164.41;5056987;28;20276;-85
2023/12/04 00:26:00;;;;;;;14.13;12.67;;;;;;;0.87;83.84;93177.75;5060428;28;20194;-86
2023/12/04 00:28:25;;;;;;;14.67;13.57;;;;;;;0.83;80.50;93181.72;5052571;28;20182;-88
2023/12/04 00:30:50;;;;;;;14.27;13.17;;;;;;;1.14;79.74;93178.38;5063140;28;20212;-87
2023/12/04 00:33:16;;;;;;;12.47;11.63;;;;;;;1.13;76.14;93177.63;5057957;28;20193;-87
2023/12/04 00:35:41;;;;;;;13.03;12.17;;;;;;;0.72;75.59;93179.00;5062857;28;20300;-87
2023/12/04 00:38:07;;;;;;;12.57;11.77;;;;;;;0.81;72.38;93186.28;5067681;28;20212;-87
2023/12/04 00:40:32;;;;;;;13.47;12.43;;;;;;;0.63;71.74;93170.78;5061810;28;20870;-87
2023/12/04 00:42:58;;;;;;;12.80;11.93;;;;;;;0.91;72.61;93184.06;5088681;28;20182;-88
2023/12/04 00:45:23;;;;;;;12.43;11.77;;;;;;;0.59;68.26;93189.38;5059934;28;20210;-84
2023/12/04 00:47:49;;;;;;;11.30;10.53;;;;;;;0.44;68.00;93187.03;5056778;28;20192;-85
2023/12/04 00:50:15;;;;;;;13.40;12.47;;;;;;;0.42;68.12;93193.38;5060058;28;20277;-84
2023/12/04 00:52:40;;;;;;;11.87;11.13;;;;;;;0.46;67.96;93186.84;5067249;28;20219;-87
2023/12/04 00:55:06;;;;;;;12.83;11.93;;;;;;;0.22;67.57;93193.44;5064130;28;20247;-85
2023/12/04 00:57:31;;;;;;;11.70;11.00;;;;;;;0.16;66.94;93189.09;5073562;28;20215;-84
2023/12/04 00:59:56;;;;;;;13.07;12.07;;;;;;;0.20;66.46;93198.00;5065750;28;20230;-85
2023/12/04 01:02:22;;;;;;;12.53;11.73;;;;;;;0.18;68.22;93194.84;5067330;28;20202;-84
2023/12/04 01:04:47;;;;;;;12.00;11.20;;;;;;;-0.08;68.37;93187.19;5065445;28;20222;-81
2023/12/04 01:07:12;;;;;;;13.00;12.30;;;;;;;-0.04;69.43;93191.72;5085049;28;20260;-85
2023/12/04 01:09:38;;;;;;;12.70;11.90;;;;;;;-0.07;70.06;93189.56;5090252;28;20217;-86
2023/12/04 01:12:03;;;;;;;11.90;11.20;;;;;;;-0.02;69.47;93183.84;5072687;28;20184;-86
2023/12/04 01:14:29;;;;;;;11.67;11.00;;;;;;;0.09;69.92;93192.69;5054415;28;20247;-86
2023/12/04 01:16:54;;;;;;;13.33;12.53;;;;;;;-0.05;70.65;93202.97;5076459;28;20185;-85
2023/12/04 01:19:20;;;;;;;13.73;12.73;;;;;;;-0.12;70.73;93201.41;5066157;28;20255;-87
2023/12/04 01:21:45;;;;;;;13.70;12.73;;;;;;;-0.17;73.07;93206.34;5073224;28;20194;-86
2023/12/04 01:24:11;;;;;;;12.87;12.17;;;;;;;-0.19;73.19;93203.19;5063085;28;20319;-86
2023/12/04 01:26:36;;;;;;;13.60;12.53;;;;;;;-0.24;74.46;93185.03;5059048;28;20207;-86
2023/12/04 01:29:01;;;;;;;13.97;12.83;;;;;;;0.05;74.66;93199.22;5059503;28;20237;-86
2023/12/04 01:31:27;;;;;;;14.40;13.17;;;;;;;0.05;74.46;93206.91;5067172;28;20245;-86
2023/12/04 01:33:52;;;;;;;14.93;13.93;;;;;;;-0.27;75.09;93214.47;5065833;28;20261;-86
2023/12/04 01:36:17;;;;;;;14.13;13.10;;;;;;;-0.31;75.41;93207.34;5064972;28;20205;-85
2023/12/04 01:38:43;;;;;;;12.73;11.83;;;;;;;-0.19;74.18;93206.53;5065483;28;20643;-86
2023/12/04 01:41:08;;;;;;;13.03;12.17;;;;;;;-0.40;75.00;93219.59;5062638;28;20174;-85
2023/12/04 01:43:34;;;;;;;13.40;12.50;;;;;;;-0.54;76.67;93201.81;5057207;28;20256;-86
2023/12/04 01:46:01;;;;;;;13.87;12.80;;;;;;;-0.58;75.55;93198.09;5065349;28;20190;-85
2023/12/04 01:48:27;;;;;;;13.93;12.90;;;;;;;-0.26;76.84;93210.09;5065128;28;20240;-86
2023/12/04 01:50:52;;;;;;;13.37;12.37;;;;;;;-0.55;77.17;93220.75;5071827;28;20194;-86
2023/12/04 01:53:18;;;;;;;14.03;13.03;;;;;;;-0.44;77.32;93208.16;5055542;28;20785;-83
2023/12/04 01:55:45;;;;;;;14.23;12.90;;;;;;;-0.53;77.20;93213.66;5058669;28;20205;-86
2023/12/04 01:58:11;;;;;;;14.17;12.90;;;;;;;-0.67;79.02;93201.84;5110700;28;20208;-86
2023/12/04 02:00:37;;;;;;;14.07;12.87;;;;;;;-0.75;79.15;93196.88;5070167;28;20225;-84
2023/12/04 02:03:02;;;;;;;15.50;14.20;;;;;;;-0.60;78.94;93205.97;5069150;28;20659;-84
2023/12/04 02:05:29;;;;;;;14.13;13.03;;;;;;;-0.72;78.13;93204.97;5080111;28;20256;-86
2023/12/04 02:07:55;;;;;;;14.73;13.47;;;;;;;-0.63;79.22;93223.50;5093239;28;20186;-85
2023/12/04 02:10:21;;;;;;;14.17;13.00;;;;;;;-0.64;79.84;93222.72;5051819;28;20312;-85
2023/12/04 02:12:46;;;;;;;13.83;12.77;;;;;;;-0.60;79.11;93218.00;5082246;28;20189;-85
2023/12/04 02:15:12;;;;;;;13.97;12.87;;;;;;;-0.57;78.52;93223.53;5071569;28;20245;-85
2023/12/04 02:17:39;;;;;;;13.47;12.57;;;;;;;-0.76;75.83;93223.50;5058179;28;20209;-85
2023/12/04 02:20:05;;;;;;;14.20;12.97;;;;;;;-0.35;75.12;93221.56;5067520;28;20206;-85
2023/12/04 02:22:31;;;;;;;13.27;12.10;;;;;;;-0.83;76.76;93217.56;5106354;28;20190;-85
2023/12/04 02:24:59;;;;;;;13.27;12.37;;;;;;;-0.62;77.28;93225.06;5073759;28;20229;-87
2023/12/04 02:27:41;;;;;;;13.63;12.67;;;;;;;-0.71;77.86;93231.38;5057929;28;20179;-81
2023/12/04 02:30:11;;;;;;;13.47;12.47;;;;;;;-0.75;78.11;93218.19;5062607;28;20212;-85
2023/12/04 02:32:42;;;;;;;13.27;12.47;;;;;;;-0.65;77.96;93235.72;5070381;28;22008;-78
2023/12/04 02:35:09;;;;;;;13.33;12.40;;;;;;;-0.64;77.42;93225.28;5060249;28;20226;-79
2023/12/04 02:37:35;;;;;;;13.80;13.00;;;;;;;-0.59;76.14;93240.09;5055428;28;20212;-80
2023/12/04 02:40:01;;;;;;;12.97;12.10;;;;;;;-0.64;75.78;93235.53;5110184;28;20217;-78
2023/12/04 02:42:26;;;;;;;13.97;13.13;;;;;;;-0.84;71.91;93239.84;5053605;28;20190;-79
2023/12/04 02:44:51;;;;;;;13.37;12.57;;;;;;;-0.91;70.85;93231.38;5065231;28;20228;-78
2023/12/04 02:47:17;;;;;;;11.97;11.37;;;;;;;-0.89;67.15;93238.84;5056449;28;20204;-79
2023/12/04 02:49:43;;;;;;;11.17;10.47;;;;;;;-0.80;67.70;93248.75;5062208;28;20281;-79
2023/12/04 02:52:08;;;;;;;12.87;11.97;;;;;;;-0.89;68.88;93255.03;5065031;28;20177;-79
2023/12/04 02:54:34;;;;;;;12.43;11.63;;;;;;;-0.87;70.15;93247.16;5062246;28;20226;-78
2023/12/04 02:56:59;;;;;;;12.30;11.70;;;;;;;-0.87;71.37;93234.34;5061442;28;20255;-79
2023/12/04 02:59:24;;;;;;;12.07;11.27;;;;;;;-0.77;70.27;93237.28;5098955;28;20961;-79
2023/12/04 03:01:50;;;;;;;13.87;12.83;;;;;;;-0.90;71.47;93243.19;5063034;28;20193;-78
2023/12/04 03:04:15;;;;;;;12.57;11.47;;;;;;;-0.96;71.65;93243.16;5051018;28;20298;-79
2023/12/04 03:06:40;;;;;;;10.50;10.00;;;;;;;-1.20;70.35;93220.66;5069146;28;20185;-78
2023/12/04 03:09:06;;;;;;;12.80;12.00;;;;;;;-0.99;69.32;93238.44;5066658;28;20244;-78
2023/12/04 03:11:31;;;;;;;12.87;12.27;;;;;;;-0.98;69.94;93247.72;5061665;28;20200;-78
2023/12/04 03:13:57;;;;;;;13.20;12.20;;;;;;;-0.80;70.88;93242.81;5061588;28;20221;-79
2023/12/04 03:16:23;;;;;;;13.70;12.80;;;;;;;-0.80;71.13;93243.63;5097760;28;20209;-79
2023/12/04 03:18:48;;;;;;;12.80;12.10;;;;;;;-0.64;71.12;93243.22;5052998;28;20247;-79
2023/12/04 03:21:13;;;;;;;12.87;12.07;;;;;;;-0.84;70.58;93219.34;5062768;28;20245;-79
2023/12/04 03:23:39;;;;;;;13.10;12.20;;;;;;;-0.65;70.76;93233.16;5066606;28;20248;-78
2023/12/04 03:26:04;;;;;;;13.07;12.07;;;;;;;-0.70;71.43;93235.53;5057242;28;20204;-77
2023/12/04 03:28:30;;;;;;;15.63;14.53;;;;;;;-0.73;69.88;93238.50;5066589;28;20216;-78
2023/12/04 03:30:55;;;;;;;13.70;12.80;;;;;;;-0.51;69.57;93253.50;5057740;28;20182;-77
2023/12/04 03:33:20;;;;;;;12.57;11.87;;;;;;;-0.75;69.29;93253.28;5089062;28;20195;-78
2023/12/04 03:35:46;;;;;;;11.90;11.10;;;;;;;-0.90;70.12;93247.53;5062330;28;20238;-78
2023/12/04 03:38:12;;;;;;;11.33;10.53;;;;;;;-0.69;70.33;93255.06;5066442;28;20194;-76
2023/12/04 03:40:37;;;;;;;12.73;11.93;;;;;;;-0.93;71.51;93240.22;5082325;28;20209;-80
2023/12/04 03:43:02;;;;;;;11.93;11.23;;;;;;;-0.78;71.96;93261.34;5083379;28;20194;-79
2023/12/04 03:45:28;;;;;;;12.57;11.57;;;;;;;-0.95;73.53;93268.59;5063096;28;20317;-87
2023/12/04 03:47:53;;;;;;;13.47;12.50;;;;;;;-0.77;74.06;93268.06;5060827;28;20182;-79
2023/12/04 03:50:19;;;;;;;12.57;11.87;;;;;;;-0.94;73.75;93271.94;5067914;28;20217;-81
2023/12/04 03:52:44;;;;;;;12.50;11.70;;;;;;;-0.86;73.20;93264.88;5058124;28;20258;-80
2023/12/04 03:55:09;;;;;;;13.00;12.03;;;;;;;-1.01;74.11;93255.78;5058976;28;20230;-80
2023/12/04 03:57:35;;;;;;;14.93;13.77;;;;;;;-0.90;75.08;93273.94;5066933;28;20249;-80
2023/12/04 04:00:00;;;;;;;13.70;12.80;;;;;;;-0.91;74.70;93271.56;5058891;28;20222;-82
2023/12/04 04:02:26;;;;;;;13.80;12.90;;;;;;;-0.87;75.38;93280.47;5058420;28;20196;-81
2023/12/04 04:04:52;;;;;;;13.53;12.53;;;;;;;-1.12;75.98;93279.41;5065702;28;20248;-81
2023/12/04 04:07:17;;;;;;;12.40;11.50;;;;;;;-1.13;77.21;93272.66;5056210;28;20190;-82
2023/12/04 04:09:43;;;;;;;14.97;13.73;;;;;;;-1.05;77.27;93273.31;5055624;28;20264;-82
2023/12/04 04:12:09;;;;;;;13.60;12.40;;;;;;;-1.21;76.42;93267.72;5073132;28;20181;-82
2023/12/04 04:14:34;;;;;;;14.03;13.10;;;;;;;-1.23;77.77;93277.38;5071685;28;20224;-81
2023/12/04 04:17:00;;;;;;;14.07;12.90;;;;;;;-1.10;78.71;93270.53;5070893;28;20193;-82
2023/12/04 04:19:25;;;;;;;14.63;13.37;;;;;;;-1.07;76.25;93282.16;5063542;28;20209;-81
2023/12/04 04:21:50;;;;;;;14.07;13.13;;;;;;;-1.17;77.05;93281.75;5067324;28;20224;-81
2023/12/04 04:24:16;;;;;;;13.87;12.83;;;;;;;-0.93;77.27;93288.91;5065070;28;20218;-82
2023/12/04 04:26:41;;;;;;;15.13;13.70;;;;;;;-0.99;76.15;93289.66;5076618;28;20190;-81
2023/12/04 04:29:06;;;;;;;13.97;13.17;;;;;;;-1.22;74.32;93273.81;5058877;28;20285;-81
2023/12/04 04:31:32;;;;;;;14.07;13.03;;;;;;;-1.14;74.26;93301.84;5065035;28;20198;-81
2023/12/04 04:33:57;;;;;;;12.13;11.23;;;;;;;-1.11;72.83;93301.47;5063555;28;20301;-81
2023/12/04 04:36:22;;;;;;;13.40;12.40;;;;;;;-0.85;74.24;93298.97;5063767;28;20247;-81
2023/12/04 04:38:48;;;;;;;13.80;12.80;;;;;;;-0.91;73.68;93302.31;5067862;28;20226;-80
2023/12/04 04:41:16;;;;;;;14.40;13.30;;;;;;;-0.91;71.32;93304.88;5061737;28;20711;-79
2023/12/04 04:43:42;;;;;;;13.50;12.40;;;;;;;-1.03;71.12;93302.09;5056090;28;20229;-82
2023/12/04 04:46:07;;;;;;;12.50;11.70;;;;;;;-1.00;75.15;93282.97;5098443;28;20246;-83
2023/12/04 04:48:33;;;;;;;12.47;11.70;;;;;;;-0.89;71.95;93305.47;5060174;28;20244;-86
2023/12/04 04:50:58;;;;;;;12.43;11.63;;;;;;;-0.78;70.96;93328.00;5069881;28;20185;-76
2023/12/04 04:53:23;;;;;;;13.33;12.43;;;;;;;-0.97;71.21;93303.09;5060048;28;20290;-80
2023/12/04 04:55:49;;;;;;;12.40;11.47;;;;;;;-0.89;71.12;93315.72;5066640;28;20263;-79
2023/12/04 04:58:14;;;;;;;13.70;12.70;;;;;;;-0.71;71.20;93336.47;5069255;28;20201;-75
2023/12/04 05:00:40;;;;;;;14.23;13.23;;;;;;;-0.84;71.40;93333.88;5070557;28;20209;-78
2023/12/04 05:03:05;;;;;;;12.93;12.03;;;;;;;-0.90;70.60;93314.16;5105312;28;20185;-80
2023/12/04 05:05:30;;;;;;;13.90;12.63;;;;;;;-1.12;73.83;93307.56;5066313;28;20265;-80
2023/12/04 05:07:56;;;;;;;13.80;12.50;;;;;;;-0.95;71.46;93331.88;5068349;28;20679;-81
2023/12/04 05:10:21;;;;;;;13.50;12.53;;;;;;;-1.04;72.45;93331.25;5060516;28;20274;-85
2023/12/04 05:12:46;;;;;;;13.43;12.43;;;;;;;-1.04;73.55;93304.84;5060636;28;20201;-86
2023/12/04 05:15:12;;;;;;;13.43;12.43;;;;;;;-0.59;72.71;93327.25;5066040;28;20237;-79
2023/12/04 05:17:37;;;;;;;13.10;12.20;;;;;;;-0.82;73.00;93324.22;5062849;28;20194;-78
2023/12/04 05:20:03;;;;;;;14.10;12.97;;;;;;;-0.88;71.99;93328.34;5062621;28;20225;-78
2023/12/04 05:22:28;;;;;;;14.57;13.50;;;;;;;-1.09;71.66;93307.97;5056219;28;20284;-77
2023/12/04 05:24:53;;;;;;;13.87;12.70;;;;;;;-0.93;70.84;93350.41;5065901;28;20213;-77
2023/12/04 05:27:19;;;;;;;15.67;14.37;;;;;;;-1.22;70.08;93327.63;5061935;28;20182;-75
2023/12/04 05:29:44;;;;;;;14.80;13.60;;;;;;;-1.00;70.84;93350.38;5059912;28;20228;-74
2023/12/04 05:32:09;;;;;;;14.50;13.60;;;;;;;-1.21;69.95;93339.44;5061464;28;20192;-73
2023/12/04 05:34:35;;;;;;;13.30;12.40;;;;;;;-1.07;70.25;93348.75;5055194;28;20206;-78
2023/12/04 05:37:00;;;;;;;13.80;12.80;;;;;;;-1.18;68.99;93344.19;5051437;28;20191;-82
2023/12/04 05:39:25;;;;;;;12.53;11.70;;;;;;;-1.29;67.62;93344.72;5052882;28;20244;-78
2023/12/04 05:41:51;;;;;;;12.40;11.70;;;;;;;-1.01;71.89;93330.09;5065771;28;20185;-78
2023/12/04 05:44:16;;;;;;;13.90;12.70;;;;;;;-1.10;65.67;93361.94;5054942;28;20232;-78
2023/12/04 05:46:41;;;;;;;14.10;13.17;;;;;;;-1.19;66.18;93363.09;5058876;28;20205;-78
2023/12/04 05:49:07;;;;;;;14.57;13.43;;;;;;;-1.04;66.25;93349.16;5058244;28;20254;-78
2023/12/04 05:51:32;;;;;;;14.73;13.50;;;;;;;-1.18;65.16;93339.06;5097544;28;20190;-78
2023/12/04 05:53:58;;;;;;;13.00;12.30;;;;;;;-0.97;65.89;93354.34;5053475;28;20229;-77
2023/12/04 05:56:23;;;;;;;12.23;11.47;;;;;;;-1.05;64.83;93346.81;5054541;28;20214;-77
2023/12/04 05:58:48;;;;;;;11.87;11.10;;;;;;;-1.03;64.94;93360.22;5057368;28;20290;-79
2023/12/04 06:01:15;;;;;;;13.67;12.77;;;;;;;-0.95;65.41;93350.59;5051734;28;20182;-79
2023/12/04 06:03:40;;;;;;;14.70;13.60;;;;;;;-0.85;66.91;93365.59;5052120;28;20230;-78
2023/12/04 06:06:06;;;;;;;15.43;14.13;;;;;;;-0.89;68.26;93369.53;5049853;28;20213;-80
2023/12/04 06:08:31;;;;;;;14.70;13.50;;;;;;;-1.10;70.61;93364.50;5055572;28;20241;-78
2023/12/04 06:10:57;;;;;;;16.00;14.60;;;;;;;-1.14;72.25;93364.13;5063081;28;20186;-78
2023/12/04 06:13:23;;;;;;;15.83;14.47;;;;;;;-1.12;73.25;93357.00;5061227;28;20198;-79
2023/12/04 06:15:48;;;;;;;15.77;14.47;;;;;;;-1.21;75.55;93372.72;5059161;28;20227;-78
2023/12/04 06:18:13;;;;;;;15.70;14.50;;;;;;;-1.27;74.44;93363.25;5057475;28;20185;-77
2023/12/04 06:20:39;;;;;;;15.37;13.73;;;;;;;-1.27;77.38;93370.91;5061801;28;20197;-77
2023/12/04 06:23:04;;;;;;;16.87;15.23;;;;;;;-1.27;75.02;93378.59;5061745;28;20228;-79
2023/12/04 06:25:30;;;;;;;17.03;15.53;;;;;;;-1.18;74.84;93377.50;5056417;28;20209;-78
2023/12/04 06:27:56;;;;;;;15.83;14.50;;;;;;;-0.85;74.51;93380.97;5056986;28;20192;-78
2023/12/04 06:30:21;;;;;;;15.53;14.27;;;;;;;-0.89;73.32;93378.03;5059610;28;20225;-79
2023/12/04 06:32:47;;;;;;;17.10;15.70;;;;;;;-0.88;71.36;93381.38;5087968;28;20209;-78
2023/12/04 06:35:13;;;;;;;17.27;15.57;;;;;;;-0.87;71.35;93377.84;5059537;28;20289;-77
2023/12/04 06:37:39;;;;;;;15.07;13.87;;;;;;;-0.68;69.38;93385.59;5055852;28;20185;-78
2023/12/04 06:40:08;;;;;;;14.53;13.33;;;;;;;-0.77;68.92;93389.31;5057426;28;20218;-78
2023/12/04 06:42:34;;;;;;;15.33;14.10;;;;;;;-0.87;69.58;93367.59;5062259;28;20170;-76
2023/12/04 06:45:00;;;;;;;13.27;12.37;;;;;;;-0.84;65.98;93397.97;5056042;28;20231;-76
2023/12/04 06:47:27;;;;;;;13.77;12.80;;;;;;;-0.54;65.24;93406.94;5057180;28;20189;-76
2023/12/04 06:49:52;;;;;;;12.60;11.80;;;;;;;-0.50;65.30;93405.59;5051027;28;20233;-76
2023/12/04 06:52:17;;;;;;;13.90;12.87;;;;;;;-0.69;64.50;93404.53;5057531;28;20289;-81
2023/12/04 06:54:43;;;;;;;12.90;11.97;;;;;;;-0.89;66.21;93402.84;5059182;28;20213;-81
2023/12/04 06:57:08;;;;;;;15.03;13.90;;;;;;;-0.75;65.73;93407.06;5060161;28;20201;-82
2023/12/04 06:59:33;;;;;;;13.97;12.87;;;;;;;-0.91;67.00;93397.13;5049351;28;20218;-81
2023/12/04 07:01:59;;;;;;;14.33;13.23;;;;;;;-0.77;66.65;93406.47;5064460;28;20198;-76
2023/12/04 07:04:24;;;;;;;14.13;13.17;;;;;;;-0.65;66.20;93415.19;5064521;28;20221;-76
2023/12/04 07:06:49;;;;;;;15.23;14.03;;;;;;;-0.62;67.60;93413.03;5062929;28;20202;-75
2023/12/04 07:09:18;;;;;;;14.30;13.27;;;;;;;-0.64;65.68;93417.53;5072379;28;20381;-75
2023/12/04 07:11:44;;;;;;;14.73;13.73;;;;;;;-0.35;66.12;93432.66;5054082;28;20204;-75
2023/12/04 07:14:10;;;;;;;13.80;12.80;;;;;;;-0.07;64.87;93429.97;5068301;28;20233;-78
2023/12/04 07:16:40;;;;;;;13.93;12.83;;;;;;;0.22;64.43;93428.84;5068371;28;20202;-77
2023/12/04 07:19:05;;;;;;;15.03;13.93;;;;;;;-0.17;66.33;93429.53;5067580;28;20235;-76
2023/12/04 07:21:31;;;;;;;13.50;12.57;;;;;;;0.20;64.65;93420.53;5069223;28;20170;-81
2023/12/04 07:23:56;;;;;;;14.43;13.23;;;;;;;-0.07;65.60;93417.94;5077641;28;20313;-80
2023/12/04 07:26:21;;;;;;;13.03;12.03;;;;;;;-0.27;64.93;93424.81;5064996;28;21070;-81
2023/12/04 07:28:47;;;;;;;12.87;12.00;;;;;;;-0.10;64.31;93430.34;5068023;28;20225;-85
2023/12/04 07:31:12;;;;;;;13.67;12.67;;;;;;;-0.03;65.33;93424.25;5063618;28;20212;-86
2023/12/04 07:33:37;;;;;;;13.23;12.43;;;;;;;0.14;64.71;93429.03;5058498;28;20296;-85
2023/12/04 07:36:03;;;;;;;13.13;12.30;;;;;;;-0.35;67.03;93432.66;5055773;28;20301;-86
2023/12/04 07:38:29;;;;;;;15.23;14.10;;;;;;;0.09;66.82;93434.75;5076095;28;20194;-81
2023/12/04 07:40:54;;;;;;;13.40;12.50;;;;;;;-0.11;64.91;93428.78;5075787;28;20249;-76
2023/12/04 07:43:19;;;;;;;13.50;12.37;;;;;;;0.05;66.08;93427.63;5071766;28;20191;-81
2023/12/04 07:45:45;;;;;;;12.67;11.73;;;;;;;0.11;65.21;93430.19;5077811;28;20189;-78
2023/12/04 07:48:10;;;;;;;12.93;11.93;;;;;;;-0.09;65.79;93439.63;5063435;28;20252;-73
2023/12/04 07:50:37;;;;;;;15.20;14.00;;;;;;;0.20;64.90;93426.47;5070369;28;20220;-72
2023/12/04 07:53:03;;;;;;;13.23;12.33;;;;;;;0.17;64.05;93431.19;5056012;28;20190;-72
2023/12/04 07:55:29;;;;;;;14.57;13.57;;;;;;;0.10;64.79;93423.47;5057153;28;20387;-74
2023/12/04 07:57:56;;;;;;;14.90;13.77;;;;;;;0.14;64.13;93442.63;5072909;28;20198;-74
2023/12/04 08:00:22;;;;;;;13.17;12.27;;;;;;;0.38;62.93;93444.66;5062437;28;20440;-76
2023/12/04 08:02:48;;;;;;;14.13;13.03;;;;;;;-0.28;62.66;93430.91;5071239;28;20478;-75
2023/12/04 08:05:13;;;;;;;13.70;12.70;;;;;;;0.34;62.54;93450.38;5068375;28;20225;-81
2023/12/04 08:07:39;;;;;;;13.63;12.83;;;;;;;0.70;61.30;93459.28;5068728;28;20185;-75
2023/12/04 08:10:06;;;;;;;13.87;12.97;;;;;;;0.17;62.45;93416.59;5076272;28;20225;-75
2023/12/04 08:12:31;;;;;;;14.70;13.57;;;;;;;0.30;63.78;93446.59;5071583;28;20189;-74
2023/12/04 08:14:57;;;;;;;14.93;13.83;;;;;;;0.33;63.54;93430.81;5064407;28;20221;-74
2023/12/04 08:17:22;;;;;;;15.60;14.57;;;;;;;0.67;63.82;93453.75;5066105;28;20201;-74
2023/12/04 08:19:47;;;;;;;14.83;13.80;;;;;;;0.46;64.35;93457.31;5065876;28;20217;-74
2023/12/04 08:22:13;;;;;;;14.20;13.13;;;;;;;0.15;64.29;93454.50;5060119;28;20173;-74
2023/12/04 08:24:38;;;;;;;13.97;13.17;;;;;;;-0.18;61.64;93433.09;5064468;28;20218;-75
2023/12/04 08:27:04;;;;;;;14.77;13.63;;;;;;;-0.27;63.47;93450.47;5064887;28;20162;-72
2023/12/04 08:29:29;;;;;;;15.50;14.37;;;;;;;-0.16;64.59;93451.66;5057203;28;20222;-74
2023/12/04 08:31:54;;;;;;;14.87;13.67;;;;;;;-0.14;65.53;93455.59;5068451;28;20190;-74
2023/12/04 08:34:20;;;;;;;15.10;13.93;;;;;;;-0.19;66.13;93446.91;5064478;28;20213;-74
2023/12/04 08:36:45;;;;;;;15.47;14.30;;;;;;;0.00;66.64;93461.59;5065825;28;20213;-74
2023/12/04 08:39:11;;;;;;;14.37;13.30;;;;;;;0.17;65.36;93460.25;5064582;28;20263;-74
2023/12/04 08:41:36;;;;;;;15.70;14.57;;;;;;;0.45;64.88;93458.28;5066795;28;20426;-73
2023/12/04 08:44:02;;;;;;;14.93;13.80;;;;;;;0.43;64.13;93454.31;5063575;28;20226;-74
2023/12/04 08:46:27;;;;;;;12.77;12.10;;;;;;;0.29;62.26;93456.09;5065643;28;20185;-74
2023/12/04 08:48:53;;;;;;;15.43;14.43;;;;;;;0.16;63.58;93458.63;5052295;28;20222;-76
2023/12/04 08:51:19;;;;;;;15.30;13.97;;;;;;;0.19;63.33;93442.84;5069018;28;20289;-76
2023/12/04 08:53:44;;;;;;;13.97;13.03;;;;;;;0.25;64.50;93449.75;5055142;28;20248;-75
2023/12/04 08:56:10;;;;;;;12.17;11.37;;;;;;;0.04;63.28;93437.09;5056343;28;20221;-76
2023/12/04 08:58:36;;;;;;;14.87;13.80;;;;;;;0.30;63.49;93452.53;5069254;28;20232;-77
2023/12/04 09:01:02;;;;;;;15.93;14.83;;;;;;;0.64;62.55;93452.34;5069611;28;20190;-77
2023/12/04 09:03:27;;;;;;;14.57;13.63;;;;;;;0.68;60.50;93461.25;5058769;28;20186;-76
2023/12/04 09:05:54;;;;;;;13.03;12.00;;;;;;;0.49;60.26;93449.19;5067699;28;20192;-76
2023/12/04 09:08:22;;;;;;;13.03;12.13;;;;;;;0.60;58.19;93452.94;5067346;28;20186;-77
2023/12/04 09:10:48;;;;;;;13.67;12.77;;;;;;;0.60;57.44;93440.09;5058414;28;20251;-76
2023/12/04 09:13:14;;;;;;;14.90;13.73;;;;;;;0.88;58.93;93441.47;5061196;28;20186;-77
2023/12/04 09:15:40;;;;;;;12.73;11.93;;;;;;;0.79;58.91;93450.41;5068493;28;20197;-76
2023/12/04 09:18:05;;;;;;;13.77;12.77;;;;;;;1.02;59.86;93444.81;5062693;28;20201;-78
2023/12/04 09:20:30;;;;;;;14.13;12.73;;;;;;;0.97;59.60;93419.72;5056221;28;20221;-79
2023/12/04 09:22:56;;;;;;;16.00;14.80;;;;;;;1.23;60.03;93437.66;5061413;28;20178;-79
2023/12/04 09:25:21;;;;;;;12.47;11.47;;;;;;;0.85;59.31;93436.75;5064066;28;20213;-80
2023/12/04 09:27:46;;;;;;;14.30;13.13;;;;;;;0.75;59.33;93413.22;5066067;28;20266;-78
2023/12/04 09:30:13;;;;;;;13.60;12.60;;;;;;;0.93;58.97;93433.97;5062512;28;20213;-80
2023/12/04 09:32:39;;;;;;;13.17;12.27;;;;;;;1.07;59.17;93414.97;5065257;28;20201;-80
2023/12/04 09:35:05;;;;;;;13.47;12.67;;;;;;;0.78;58.22;93410.25;5066678;28;20221;-79
2023/12/04 09:37:30;;;;;;;14.00;13.00;;;;;;;0.95;59.39;93401.13;5064356;28;20186;-79
2023/12/04 09:39:55;;;;;;;11.87;11.07;;;;;;;1.05;58.86;93429.00;5060938;28;20217;-78
2023/12/04 09:42:21;;;;;;;14.33;13.40;;;;;;;0.99;59.08;93420.31;5067432;28;20194;-79
2023/12/04 09:44:49;;;;;;;13.70;12.43;;;;;;;1.29;58.98;93434.25;5060509;28;20226;-79
2023/12/04 09:47:18;;;;;;;13.27;12.37;;;;;;;1.54;57.37;93424.88;5067729;28;20198;-83
2023/12/04 09:49:45;;;;;;;13.87;12.93;;;;;;;1.32;58.91;93439.00;5067841;28;20224;-79
2023/12/04 09:52:11;;;;;;;12.43;11.63;;;;;;;1.10;58.92;93432.56;5060175;28;20216;-79
2023/12/04 09:54:38;;;;;;;12.57;11.73;;;;;;;1.11;58.02;93423.84;5065709;28;20222;-80
2023/12/04 09:57:05;;;;;;;15.20;13.70;;;;;;;1.36;58.10;93424.75;5058044;28;20802;-80
2023/12/04 09:59:30;;;;;;;14.57;13.47;;;;;;;1.15;60.30;93422.44;5050878;28;20222;-80
2023/12/04 10:01:57;;;;;;;13.47;12.47;;;;;;;1.42;59.50;93426.53;5063507;28;20177;-81
2023/12/04 10:04:24;;;;;;;12.97;11.83;;;;;;;1.24;56.04;93405.03;5060757;28;20237;-79
2023/12/04 10:06:51;;;;;;;13.37;12.43;;;;;;;1.20;57.42;93404.63;5054887;28;20190;-80
2023/12/04 10:09:18;;;;;;;12.67;11.90;;;;;;;1.16;57.39;93412.94;5087047;28;20239;-80
2023/12/04 10:11:45;;;;;;;13.63;12.63;;;;;;;1.16;60.66;93412.94;5072238;28;20190;-80
2023/12/04 10:14:21;;;;;;;14.47;13.27;;;;;;;1.50;59.55;93377.41;5053474;28;20236;-79
2023/12/04 10:16:46;;;;;;;14.07;12.93;;;;;;;1.84;58.67;93408.94;5067098;28;20268;-80
2023/12/04 10:19:22;;;;;;;12.40;11.50;;;;;;;1.44;59.65;93410.88;5067906;28;20233;-80
2023/12/04 10:21:49;;;;;;;13.33;12.30;;;;;;;1.29;59.37;93382.81;5061147;28;20280;-80
2023/12/04 10:24:31;;;;;;;13.83;12.90;;;;;;;1.44;60.04;93414.25;5054633;28;20289;-80
2023/12/04 10:26:56;;;;;;;15.00;13.87;;;;;;;1.34;60.46;93402.78;5057887;28;20224;-80
2023/12/04 10:29:23;;;;;;;14.07;12.63;;;;;;;1.23;59.25;93409.34;5060419;28;20221;-79
2023/12/04 10:31:50;;;;;;;14.13;13.17;;;;;;;1.40;58.84;93381.44;5059993;28;20186;-80
2023/12/04 10:34:16;;;;;;;18.40;15.57;;;;;;;1.64;59.14;93399.53;5058025;28;20210;-81
2023/12/04 10:36:42;;;;;;;14.23;13.13;;;;;;;2.09;59.60;93384.00;5053048;28;20210;-80
2023/12/04 10:39:07;;;;;;;14.77;13.87;;;;;;;1.79;57.73;93394.09;5055665;28;20245;-81
2023/12/04 10:41:32;;;;;;;13.70;12.60;;;;;;;1.47;59.24;93390.69;5062123;28;20247;-78
2023/12/04 10:43:58;;;;;;;14.60;13.63;;;;;;;1.68;60.45;93382.66;5095498;28;20226;-79
2023/12/04 10:46:25;;;;;;;13.30;12.30;;;;;;;1.62;61.54;93383.50;5065816;28;20216;-78
2023/12/04 10:48:50;;;;;;;14.07;13.17;;;;;;;2.01;58.83;93386.84;5054520;28;20237;-79
2023/12/04 10:51:17;;;;;;;14.23;13.23;;;;;;;2.03;59.09;93370.19;5101868;28;20193;-80
2023/12/04 10:53:44;;;;;;;14.53;13.33;;;;;;;2.33;57.64;93385.84;5064213;28;20229;-79
2023/12/04 10:56:12;;;;;;;14.73;13.73;;;;;;;2.30;57.24;93386.25;5060166;28;20201;-79
2023/12/04 10:58:41;;;;;;;14.93;13.60;;;;;;;2.18;57.17;93387.94;5066390;28;20252;-81
2023/12/04 11:01:08;;;;;;;13.63;12.73;;;;;;;2.42;56.31;93394.88;5057515;28;20186;-82
2023/12/04 11:03:47;;;;;;;14.93;13.73;;;;;;;2.25;57.60;93388.66;5056419;28;20427;-80
2023/12/04 11:06:16;;;;;;;14.47;13.50;;;;;;;1.69;59.23;93368.03;5101012;28;20185;-80
2023/12/04 11:08:43;;;;;;;16.60;14.90;;;;;;;2.04;59.40;93391.59;5060214;28;20244;-81
2023/12/04 11:11:14;;;;;;;14.10;13.20;;;;;;;2.32;58.70;93384.25;5074739;28;20219;-81
2023/12/04 11:13:41;;;;;;;13.53;12.43;;;;;;;2.51;58.09;93388.47;5061696;28;20241;-82